Broad Brook, Connecticut
Current Conditions -  °F | °C
As of 12:51 PM on Friday 24 Oct 2014 (Local Time) from KBDL Reporting Station
Broken Clouds Broken Clouds  
Wind Chill: 55°   Ceiling: 3200
Heat Index: 55°   Visibility: 10mi
Dew Point: 41°   Wind: 14mph
Humidity: 59%   Direction: 350°N
Pressure: 29.74"   Gusts: 26mph
Location:  41.91°N, 72.54°W
Report Text: KBDL 241651Z 35012G23KT 10SM SCT028 BKN032 BKN120 13/05 A2974 RMK AO2 SLP070 T01280050
Loading
Personal Weather Stations






























Interactive Weather Map
Tropical Storm Tracking
New forecast layout! Learn more

10-Day Weather Forecast

Advertisements
Track Severe Weather on mobile